Annamoriah, WV

12:24 PM EST on February 10, 2016 (GMT -0500)
Reedy, WV | | Change Station
CLOSE
Current Station
Personal Weather Station
Location: Reedy, WV
Elevation: 750 ft
Nearby Weather Stations
Active Advisory: Winter Weather Advisory Active Notice: Local Storm Report

Elev 750 ft 38.89 °N, 81.40 °W | Updated 3 minutes ago

Snow
Snow
22.1 °F
Feels Like 22 °F
N
2.0
Wind Variable Wind from NNW
Gusts 4.0 mph

Today
High -- | Low -- °F
--% Chance of Precip.
Yesterday
High -- | Low -- °F
Precip. -- in
Pressure 29.96 in
Visibility 2.0 miles
Clouds Few 1700 ft
Mostly Cloudy 2200 ft
Overcast 3000 ft
Windchill 22 °F
Dew Point 15 °F
Humidity 73%
Rainfall 0.00 in
Snow Depth Not available.
7:22 AM 5:56 PM
Waxing Crescent, 6% visible
SPECI KPKB 101707Z 23010G19KT 2SM -SN FEW017 BKN022 OVC030 M07/M11 A2996 RMK AO2 P0000 T10721111
Pressure 29.96 in
Visibility 2.0 miles
Clouds Few 1700 ft
Mostly Cloudy 2200 ft
Overcast 3000 ft
Windchill 22 °F
Dew Point 15 °F
Humidity 73%
Rainfall 0.00 in
Snow Depth Not available.
7:22 AM 5:56 PM
Waxing Crescent, 6% visible
SPECI KPKB 101707Z 23010G19KT 2SM -SN FEW017 BKN022 OVC030 M07/M11 A2996 RMK AO2 P0000 T10721111

10-Day Weather Forecast

Almanac

Astronomy

Feb. 10, 2016 Rise Set
Actual Time
Civil Twilight
Nautical Twilight
Astronomical Twilight
Moon
Length of Visible Light
Length of Day
Tomorrow will be .
, % of the Moon is Illuminated

Today's Extremes

State Highs State Lows

Community

WunderPhotos

Upload Photos

1,891,895 photos uploaded!

WunderBlog® & News

Nearby

Air Quality

  Air Quality AQ Index Pollutant
Not available.

Snow Depth

Station Depth Elevation

Earthquake Activity

City Distance Mag. Time & Date
Minimum magnitude displayed is 2.5.

Coastal Water Temperatures

Place Temperature

Stations

Nearby Weather Stations

Station Location Temp. Windchill Dew Point Humidity Wind Precip. Elev Updated Type
                   

Watches & Warnings

Winter Weather Advisory
Issued: 4:38 AM EST Feb. 10, 2016 – National Weather Service

... Winter Weather Advisory now in effect until 6 PM EST this
evening...

* hazard types... snow showers of varying intensity.

* Total snow accumulations from Monday night through today..4 to
9 inches.

* Temperatures... 16 to 23.

* Impacts... travel will be difficult at times. Visibilities will
be limited at times.

Precautionary/preparedness actions...

A Winter Weather Advisory for snow means that periods of snow
will cause primarily travel difficulties. Be prepared for snow
covered roads and limited visibilities... and use caution while
driving.

With the colder weather... have your vehicle equipped with
emergency supplies.